Time;durP1;ratioP1;P1;durP2;ratioP2;P2;SDS_P1;SDS_P2;PMS_P1;PMS_P2;Temp;Humidity;BMP_temperature;BMP_pressure;BME280_temperature;BME280_humidity;BME280_pressure;Samples;Min_cycle;Max_cycle;Signal;HPM_P1;HPM_P2
2022/03/30 00:00:12;;;;;;;32.33;12.15;;;;;;;5.50;79.79;100904.34;5095132;28;20031;-75
2022/03/30 00:02:38;;;;;;;35.25;11.65;;;;;;;5.49;80.46;100892.47;5095140;28;20020;-75
2022/03/30 00:05:04;;;;;;;32.83;11.38;;;;;;;5.63;79.26;100897.03;5077020;28;20387;-75
2022/03/30 00:07:31;;;;;;;27.73;11.32;;;;;;;5.73;78.83;100894.38;5076759;28;20027;-74
2022/03/30 00:09:58;;;;;;;24.05;11.02;;;;;;;5.77;78.77;100892.31;5095054;28;20551;-75
2022/03/30 00:12:24;;;;;;;29.02;11.50;;;;;;;5.81;78.61;100898.72;5095010;28;20035;-75
2022/03/30 00:14:49;;;;;;;28.77;11.07;;;;;;;5.74;78.70;100893.41;5076099;28;20024;-74
2022/03/30 00:17:14;;;;;;;24.50;10.95;;;;;;;5.70;78.45;100901.56;5094851;28;20422;-75
2022/03/30 00:19:40;;;;;;;31.88;12.40;;;;;;;5.70;78.81;100904.94;5076615;28;20024;-75
2022/03/30 00:22:05;;;;;;;24.23;11.20;;;;;;;5.66;79.54;100901.84;5076625;28;20051;-74
2022/03/30 00:24:30;;;;;;;27.75;11.30;;;;;;;5.61;79.21;100895.56;5076573;28;20036;-75
2022/03/30 00:26:56;;;;;;;30.65;11.77;;;;;;;5.66;78.98;100888.25;5094733;28;20546;-74
2022/03/30 00:29:21;;;;;;;26.45;10.77;;;;;;;5.51;79.80;100890.56;5076743;28;20032;-75
2022/03/30 00:31:46;;;;;;;27.45;11.48;;;;;;;5.34;80.31;100884.53;5094576;28;20028;-75
2022/03/30 00:34:11;;;;;;;33.13;11.30;;;;;;;5.41;80.50;100888.09;5094693;28;20089;-74
2022/03/30 00:36:37;;;;;;;28.08;11.60;;;;;;;5.36;80.65;100892.06;5076267;28;20024;-75
2022/03/30 00:39:02;;;;;;;24.92;10.85;;;;;;;5.53;80.20;100887.84;5094422;28;20020;-74
2022/03/30 00:41:28;;;;;;;29.38;11.00;;;;;;;5.60;79.73;100888.84;5094476;28;20024;-75
2022/03/30 00:43:53;;;;;;;33.17;11.43;;;;;;;5.61;79.57;100883.59;5094640;28;20031;-75
2022/03/30 00:46:19;;;;;;;33.55;11.52;;;;;;;5.54;79.71;100886.91;5094381;28;20115;-75
2022/03/30 00:48:44;;;;;;;26.13;11.18;;;;;;;5.43;80.03;100878.50;5076044;28;20016;-75
2022/03/30 00:51:10;;;;;;;30.90;11.93;;;;;;;5.46;79.78;100887.63;5094059;28;20040;-75
2022/03/30 00:53:35;;;;;;;31.55;11.40;;;;;;;5.49;79.68;100891.66;5094224;28;20031;-75
2022/03/30 00:56:01;;;;;;;28.35;11.48;;;;;;;5.36;80.19;100881.81;5075931;28;20481;-75
2022/03/30 00:58:28;;;;;;;23.10;11.07;;;;;;;5.38;79.99;100890.16;5093925;28;20115;-76
2022/03/30 01:00:54;;;;;;;29.05;11.05;;;;;;;5.32;80.46;100883.06;5075903;28;20490;-75
2022/03/30 01:03:19;;;;;;;33.85;11.95;;;;;;;5.32;80.51;100875.38;5094254;28;20378;-74
2022/03/30 01:05:45;;;;;;;35.83;11.70;;;;;;;5.22;80.18;100878.03;5093970;28;20023;-75
2022/03/30 01:08:11;;;;;;;26.10;11.48;;;;;;;5.15;80.37;100872.72;5075782;28;20077;-75
2022/03/30 01:10:36;;;;;;;33.45;10.95;;;;;;;5.06;80.44;100871.03;5093875;28;20016;-74
2022/03/30 01:13:02;;;;;;;26.98;11.75;;;;;;;5.04;81.17;100867.03;5093854;28;20483;-75
2022/03/30 01:15:27;;;;;;;31.40;11.18;;;;;;;5.02;80.80;100859.47;5092459;28;20030;-75
2022/03/30 01:17:52;;;;;;;35.25;12.05;;;;;;;4.91;80.92;100865.63;5075627;28;20026;-74
2022/03/30 01:20:22;;;;;;;33.08;12.00;;;;;;;5.00;81.32;100855.44;5093640;28;20024;-75
2022/03/30 01:22:49;;;;;;;31.40;11.50;;;;;;;4.93;81.04;100855.25;5093591;28;20026;-75
2022/03/30 01:25:14;;;;;;;26.17;11.35;;;;;;;5.01;80.52;100857.88;5093522;28;20028;-75
2022/03/30 01:27:40;;;;;;;42.30;12.35;;;;;;;4.93;80.71;100857.81;5093879;28;20058;-75
2022/03/30 01:33:04;;;;;;;31.90;11.48;;;;;;;4.84;81.24;100843.34;5093854;28;20050;-75
2022/03/30 01:35:30;;;;;;;28.95;11.65;;;;;;;4.88;80.60;100844.63;5093659;28;20028;-76
2022/03/30 01:37:55;;;;;;;31.33;11.55;;;;;;;4.84;80.56;100836.44;5093417;28;20433;-75
2022/03/30 01:40:21;;;;;;;33.78;12.35;;;;;;;4.81;80.95;100835.94;5093502;28;20059;-75
2022/03/30 01:42:47;;;;;;;27.40;11.85;;;;;;;4.86;80.65;100844.81;5093370;28;20035;-75
2022/03/30 01:45:15;;;;;;;28.20;11.40;;;;;;;4.93;80.50;100833.00;5093571;28;20390;-76
2022/03/30 01:47:46;;;;;;;36.20;12.20;;;;;;;4.87;80.62;100835.34;5093250;28;20526;-75
2022/03/30 01:50:12;;;;;;;30.75;10.90;;;;;;;4.90;80.71;100827.38;5067241;28;20033;-75
2022/03/30 01:52:37;;;;;;;31.60;11.63;;;;;;;4.87;80.84;100822.56;5053039;28;20028;-74
2022/03/30 01:55:03;;;;;;;30.35;12.48;;;;;;;4.93;80.76;100816.84;5053242;28;20107;-74
2022/03/30 01:57:28;;;;;;;28.08;11.65;;;;;;;4.87;80.35;100818.22;5051601;28;20068;-75
2022/03/30 01:59:54;;;;;;;25.38;11.07;;;;;;;4.86;80.69;100816.63;5051665;28;20021;-75
2022/03/30 02:02:20;;;;;;;32.60;11.88;;;;;;;4.73;80.86;100811.88;5052874;28;20728;-74
2022/03/30 02:04:46;;;;;;;31.08;12.02;;;;;;;4.73;80.87;100806.75;5052829;28;20049;-75
2022/03/30 02:07:11;;;;;;;28.77;12.60;;;;;;;4.73;81.35;100811.88;5053155;28;20108;-74
2022/03/30 02:09:37;;;;;;;32.47;11.63;;;;;;;4.69;81.77;100813.13;5053103;28;20101;-74
2022/03/30 02:12:04;;;;;;;30.98;12.05;;;;;;;4.68;81.49;100808.16;5052838;28;20029;-75
2022/03/30 02:14:30;;;;;;;27.65;11.82;;;;;;;4.58;81.64;100802.31;5052809;28;20025;-75
2022/03/30 02:16:55;;;;;;;27.88;12.23;;;;;;;4.63;81.05;100806.03;5051566;28;20071;-75
2022/03/30 02:19:20;;;;;;;28.50;11.48;;;;;;;4.65;81.49;100796.44;5053265;28;20491;-75
2022/03/30 02:21:46;;;;;;;26.50;12.05;;;;;;;4.59;81.61;100796.25;5052754;28;20037;-74
2022/03/30 02:24:11;;;;;;;28.33;12.50;;;;;;;4.56;81.77;100794.78;5052817;28;20035;-75
2022/03/30 02:26:37;;;;;;;26.15;12.30;;;;;;;4.59;81.30;100798.78;5051462;28;20029;-75
2022/03/30 02:29:03;;;;;;;30.77;12.52;;;;;;;4.53;81.79;100792.50;5051530;28;20024;-76
2022/03/30 02:31:28;;;;;;;34.15;12.57;;;;;;;4.52;81.95;100784.03;5051294;28;20017;-75
2022/03/30 02:33:53;;;;;;;33.42;12.57;;;;;;;4.61;81.70;100789.22;5052680;28;20025;-75
2022/03/30 02:36:18;;;;;;;29.20;11.93;;;;;;;4.60;81.46;100788.41;5052612;28;20044;-75
2022/03/30 02:38:44;;;;;;;29.65;11.80;;;;;;;4.57;81.58;100777.66;5054900;28;20037;-74
2022/03/30 02:41:11;;;;;;;26.83;11.70;;;;;;;4.48;82.24;100780.16;5055151;28;20031;-74
2022/03/30 02:43:37;;;;;;;34.35;12.05;;;;;;;4.49;81.20;100776.66;5055240;28;20082;-75
2022/03/30 02:46:03;;;;;;;34.05;11.88;;;;;;;4.42;81.59;100767.94;5056336;28;20032;-75
2022/03/30 02:48:29;;;;;;;29.25;12.35;;;;;;;4.40;81.65;100763.91;5056335;28;20017;-75
2022/03/30 02:50:57;;;;;;;26.83;11.95;;;;;;;4.30;81.20;100756.31;5054926;28;20068;-73
2022/03/30 02:53:23;;;;;;;29.23;12.45;;;;;;;4.14;81.90;100756.97;5056240;28;20048;-75
2022/03/30 02:55:49;;;;;;;27.30;12.50;;;;;;;4.15;82.83;100757.78;5054956;28;20119;-74
2022/03/30 02:58:15;;;;;;;31.90;11.90;;;;;;;4.19;82.31;100752.22;5056093;28;20496;-75
2022/03/30 03:00:42;;;;;;;34.15;12.48;;;;;;;4.21;82.06;100763.13;5054960;28;20036;-75
2022/03/30 03:03:09;;;;;;;33.53;13.27;;;;;;;4.20;82.11;100753.03;5056221;28;20086;-74
2022/03/30 03:05:38;;;;;;;24.73;11.82;;;;;;;4.18;81.93;100747.28;5056077;28;20455;-74
2022/03/30 03:08:08;;;;;;;33.42;12.70;;;;;;;4.30;82.53;100752.00;5055895;28;20055;-75
2022/03/30 03:10:36;;;;;;;31.83;12.45;;;;;;;4.20;83.09;100742.78;5055275;28;20028;-75
2022/03/30 03:13:03;;;;;;;32.50;11.77;;;;;;;4.34;82.22;100741.47;5052880;28;20028;-73
2022/03/30 03:15:29;;;;;;;27.13;12.20;;;;;;;4.26;82.86;100749.91;5053179;28;20116;-75
2022/03/30 03:17:54;;;;;;;31.85;13.15;;;;;;;4.17;81.96;100736.25;5055100;28;20032;-73
2022/03/30 03:20:20;;;;;;;26.77;12.27;;;;;;;4.13;83.72;100739.22;5055214;28;20056;-73
2022/03/30 03:22:45;;;;;;;30.13;13.15;;;;;;;4.12;83.64;100735.06;5054468;28;20375;-74
2022/03/30 03:25:10;;;;;;;29.27;13.45;;;;;;;4.18;83.04;100737.84;5055782;28;20033;-75
2022/03/30 03:27:37;;;;;;;31.63;12.80;;;;;;;4.18;83.19;100731.91;5055650;28;20078;-75
2022/03/30 03:30:04;;;;;;;33.03;13.18;;;;;;;4.10;83.35;100742.88;5054282;28;20086;-74
2022/03/30 03:32:30;;;;;;;31.15;12.57;;;;;;;4.12;83.57;100740.97;5055531;28;20107;-76
2022/03/30 03:34:55;;;;;;;34.65;12.98;;;;;;;3.95;83.01;100752.00;5053199;28;20163;-73
2022/03/30 03:37:20;;;;;;;30.58;11.90;;;;;;;3.91;82.68;100735.31;5054624;28;20025;-74
2022/03/30 03:39:46;;;;;;;29.23;12.40;;;;;;;3.84;82.99;100730.78;5055415;28;20017;-75
2022/03/30 03:42:11;;;;;;;33.88;12.77;;;;;;;3.84;82.86;100730.78;5054046;28;20029;-75
2022/03/30 03:44:36;;;;;;;28.80;12.25;;;;;;;3.79;82.21;100732.16;5054037;28;20055;-74
2022/03/30 03:47:02;;;;;;;28.83;12.88;;;;;;;3.74;83.13;100726.66;5055243;28;20349;-76
2022/03/30 03:49:28;;;;;;;25.73;11.50;;;;;;;3.76;82.26;100724.78;5052788;28;20476;-75
2022/03/30 03:51:53;;;;;;;31.45;12.57;;;;;;;3.74;82.33;100724.13;5091930;28;20127;-74
2022/03/30 03:54:19;;;;;;;29.73;11.98;;;;;;;3.68;82.70;100719.59;5095271;28;20038;-77
2022/03/30 03:56:44;;;;;;;25.33;11.77;;;;;;;3.64;82.16;100723.38;5077038;28;20020;-76
2022/03/30 03:59:10;;;;;;;32.92;11.57;;;;;;;3.54;82.25;100715.75;5077024;28;20028;-73
2022/03/30 04:01:36;;;;;;;27.80;12.50;;;;;;;3.45;82.57;100719.97;5095183;28;20028;-75
2022/03/30 04:04:02;;;;;;;27.73;11.45;;;;;;;3.31;82.80;100720.44;5095093;28;20028;-75
2022/03/30 04:06:29;;;;;;;37.33;12.88;;;;;;;3.17;83.04;100717.41;5076917;28;20024;-75
2022/03/30 04:08:54;;;;;;;29.48;12.35;;;;;;;3.22;83.86;100709.31;5095060;28;20024;-76
2022/03/30 04:11:19;;;;;;;29.05;13.05;;;;;;;3.19;83.61;100713.91;5076931;28;20031;-75
2022/03/30 04:13:45;;;;;;;30.35;12.65;;;;;;;3.23;83.65;100712.69;5076795;28;20032;-74
2022/03/30 04:16:10;;;;;;;27.75;12.48;;;;;;;3.30;83.54;100711.97;5094903;28;20047;-75
2022/03/30 04:18:35;;;;;;;30.38;12.38;;;;;;;3.25;83.73;100708.22;5076785;28;20395;-75
2022/03/30 04:21:00;;;;;;;26.75;12.25;;;;;;;3.23;83.72;100708.38;5094922;28;20027;-73
2022/03/30 04:23:26;;;;;;;28.48;12.10;;;;;;;3.19;83.64;100706.22;5094705;28;20036;-74
2022/03/30 04:25:51;;;;;;;25.52;11.77;;;;;;;3.25;84.07;100709.06;5094688;28;20027;-75
2022/03/30 04:28:17;;;;;;;30.08;12.77;;;;;;;3.45;84.22;100699.53;5076485;28;20032;-75
2022/03/30 04:30:43;;;;;;;30.00;12.88;;;;;;;3.42;82.62;100704.13;5094653;28;20433;-75
2022/03/30 04:33:09;;;;;;;34.45;12.80;;;;;;;3.26;83.97;100705.53;5094597;28;20019;-75
2022/03/30 04:35:35;;;;;;;26.98;12.48;;;;;;;3.26;84.08;100700.44;5076303;28;20119;-74
2022/03/30 04:38:00;;;;;;;30.55;13.27;;;;;;;3.25;83.98;100692.91;5076349;28;20118;-74
2022/03/30 04:40:26;;;;;;;29.90;12.55;;;;;;;3.23;84.02;100705.81;5076081;28;20035;-76
2022/03/30 04:42:52;;;;;;;28.30;13.13;;;;;;;3.19;83.94;100704.47;5076217;28;20035;-76
2022/03/30 04:45:19;;;;;;;31.77;12.68;;;;;;;3.19;84.60;100704.47;5094223;28;20024;-74
2022/03/30 04:47:44;;;;;;;34.70;13.50;;;;;;;3.25;84.76;100692.91;5076246;28;20031;-75
2022/03/30 04:50:10;;;;;;;31.70;12.98;;;;;;;3.22;84.58;100701.63;5094104;28;20045;-75
2022/03/30 04:52:37;;;;;;;33.20;13.25;;;;;;;3.14;85.31;100699.00;5094100;28;20023;-75
2022/03/30 04:55:04;;;;;;;30.63;13.32;;;;;;;3.16;85.00;100699.66;5075940;28;20035;-74
2022/03/30 04:57:30;;;;;;;28.85;12.73;;;;;;;3.30;84.21;100688.19;5093999;28;20020;-75
2022/03/30 04:59:55;;;;;;;28.55;12.48;;;;;;;3.25;84.59;100691.16;5094696;28;20410;-76
2022/03/30 05:02:21;;;;;;;31.85;13.20;;;;;;;3.21;84.97;100684.72;5076679;28;20035;-76
2022/03/30 05:04:46;;;;;;;30.90;13.23;;;;;;;3.32;85.56;100684.53;5076934;28;20020;-74
2022/03/30 05:07:13;;;;;;;33.00;14.00;;;;;;;3.45;84.84;100696.97;5096010;28;20048;-74
2022/03/30 05:09:38;;;;;;;31.65;14.18;;;;;;;3.43;84.28;100695.53;5094808;28;20146;-75
2022/03/30 05:12:04;;;;;;;28.85;13.07;;;;;;;3.32;84.96;100699.06;5075751;28;20473;-74
2022/03/30 05:14:29;;;;;;;29.83;13.98;;;;;;;3.32;84.36;100699.06;5092572;28;20111;-75
2022/03/30 05:16:54;;;;;;;27.58;12.85;;;;;;;3.31;84.33;100705.09;5092217;28;20363;-75
2022/03/30 05:19:20;;;;;;;31.63;13.70;;;;;;;3.29;84.25;100695.03;5092489;28;20016;-75
2022/03/30 05:21:45;;;;;;;31.30;13.38;;;;;;;3.25;84.16;100698.00;5093612;28;20027;-75
2022/03/30 05:24:10;;;;;;;26.65;12.40;;;;;;;3.20;84.06;100692.53;5093737;28;20023;-75
2022/03/30 05:26:36;;;;;;;24.40;11.90;;;;;;;3.24;83.59;100684.44;5093495;28;20031;-75
2022/03/30 05:29:02;;;;;;;28.45;12.05;;;;;;;3.18;83.80;100682.44;5093384;28;20050;-75
2022/03/30 05:31:27;;;;;;;26.23;12.30;;;;;;;3.23;82.76;100689.69;5091770;28;20035;-76
2022/03/30 05:33:52;;;;;;;24.63;11.90;;;;;;;3.19;82.79;100678.13;5073547;28;20016;-75
2022/03/30 05:36:18;;;;;;;26.83;12.18;;;;;;;3.24;82.71;100678.53;5092396;28;20023;-74
2022/03/30 05:38:44;;;;;;;31.75;12.85;;;;;;;3.13;82.66;100676.94;5074900;28;20031;-75
2022/03/30 05:41:10;;;;;;;27.75;13.32;;;;;;;3.30;82.65;100673.66;5075223;28;20030;-75
2022/03/30 05:43:35;;;;;;;27.63;12.38;;;;;;;3.31;82.32;100671.91;5093285;28;20027;-75
2022/03/30 05:46:00;;;;;;;25.02;12.07;;;;;;;3.35;82.71;100673.22;5075112;28;20402;-75
2022/03/30 05:48:26;;;;;;;28.17;13.23;;;;;;;3.46;82.13;100667.13;5075164;28;20028;-75
2022/03/30 05:50:53;;;;;;;30.63;13.65;;;;;;;3.53;81.94;100668.16;5091828;28;20075;-75
2022/03/30 05:53:18;;;;;;;33.80;14.32;;;;;;;3.51;82.42;100667.50;5074962;28;20052;-75
2022/03/30 05:55:44;;;;;;;29.58;14.77;;;;;;;3.53;82.40;100675.81;5093145;28;20028;-75
2022/03/30 05:58:10;;;;;;;28.05;14.00;;;;;;;3.55;82.96;100674.72;5092984;28;20035;-75
2022/03/30 06:00:36;;;;;;;30.27;14.77;;;;;;;3.68;82.58;100676.94;5093065;28;20028;-75
2022/03/30 06:03:02;;;;;;;36.63;15.15;;;;;;;3.94;82.34;100679.59;5074906;28;20059;-75
2022/03/30 06:05:27;;;;;;;33.25;15.00;;;;;;;4.33;82.07;100663.94;5093142;28;20451;-75
2022/03/30 06:07:57;;;;;;;37.53;14.52;;;;;;;4.45;80.97;100670.41;5074874;28;20031;-75
2022/03/30 06:10:25;;;;;;;39.15;15.23;;;;;;;4.85;80.75;100665.69;5092713;28;20017;-74
2022/03/30 06:12:50;;;;;;;34.92;14.73;;;;;;;5.07;79.86;100672.84;5076128;28;20094;-76
2022/03/30 06:15:15;;;;;;;37.35;14.55;;;;;;;5.23;79.32;100673.88;5078996;28;20050;-77
2022/03/30 06:17:41;;;;;;;30.35;14.32;;;;;;;5.26;78.71;100681.25;5079205;28;20398;-75
2022/03/30 06:20:07;;;;;;;40.92;14.48;;;;;;;5.23;78.46;100679.00;5078865;28;20020;-75
2022/03/30 06:22:35;;;;;;;31.92;14.13;;;;;;;5.43;78.33;100676.00;5078721;28;20504;-75
2022/03/30 06:25:01;;;;;;;35.45;15.45;;;;;;;5.56;77.43;100679.91;5096797;28;20030;-74
2022/03/30 06:27:26;;;;;;;32.60;14.75;;;;;;;5.54;77.70;100679.25;5078204;28;20394;-74
2022/03/30 06:29:52;;;;;;;36.13;15.07;;;;;;;5.63;78.01;100688.56;5095458;28;20031;-76
2022/03/30 06:32:18;;;;;;;31.50;15.30;;;;;;;5.69;77.55;100685.38;5096634;28;20391;-75
2022/03/30 06:34:43;;;;;;;37.58;14.85;;;;;;;5.81;77.31;100684.13;5077756;28;20051;-76
2022/03/30 06:37:08;;;;;;;30.30;15.48;;;;;;;6.02;77.32;100681.13;5096705;28;20020;-75
2022/03/30 06:39:34;;;;;;;31.02;14.65;;;;;;;6.22;76.82;100680.84;5078160;28;20020;-76
2022/03/30 06:42:00;;;;;;;41.78;16.25;;;;;;;6.49;76.40;100679.69;5078648;28;20024;-75
2022/03/30 06:44:25;;;;;;;35.70;15.20;;;;;;;6.58;75.94;100678.69;5096274;28;20024;-75
2022/03/30 06:46:51;;;;;;;44.33;15.70;;;;;;;6.41;76.62;100690.75;5094924;28;20032;-75
2022/03/30 06:49:16;;;;;;;30.55;15.35;;;;;;;6.29;76.86;100687.72;5096442;28;20027;-75
2022/03/30 06:51:42;;;;;;;36.83;15.43;;;;;;;6.36;77.02;100690.44;5096266;28;20392;-75
2022/03/30 06:54:07;;;;;;;33.95;16.00;;;;;;;6.51;76.70;100675.19;5096394;28;20102;-76
2022/03/30 06:56:33;;;;;;;34.80;15.85;;;;;;;6.42;77.00;100678.75;5096647;28;20382;-75
2022/03/30 06:58:58;;;;;;;37.78;15.75;;;;;;;6.33;77.52;100688.22;5077871;28;20031;-75
2022/03/30 07:01:24;;;;;;;27.63;14.43;;;;;;;6.46;77.44;100682.56;5096501;28;20028;-75
2022/03/30 07:03:50;;;;;;;38.22;14.52;;;;;;;6.54;76.65;100690.28;5077953;28;20112;-75
2022/03/30 07:06:16;;;;;;;32.00;14.35;;;;;;;6.59;76.59;100692.34;5096185;28;20158;-75
2022/03/30 07:11:26;;;;;;;36.67;17.42;;;;;;;6.58;77.35;100683.84;5093998;28;20084;-74
2022/03/30 07:13:52;;;;;;;38.83;18.48;;;;;;;6.77;77.02;100683.50;5075769;28;20111;-73
2022/03/30 07:16:18;;;;;;;39.38;16.77;;;;;;;6.62;77.17;100679.16;5076125;28;20059;-73
2022/03/30 07:18:43;;;;;;;34.28;15.57;;;;;;;6.28;78.39;100680.97;5075967;28;20443;-75
2022/03/30 07:21:09;;;;;;;34.33;15.32;;;;;;;6.71;78.10;100678.22;5094479;28;20130;-74
2022/03/30 07:23:34;;;;;;;36.30;14.95;;;;;;;6.69;77.80;100680.13;5093770;28;20040;-75
2022/03/30 07:26:00;;;;;;;31.30;14.13;;;;;;;6.78;77.56;100671.44;5094297;28;20051;-73
2022/03/30 07:28:26;;;;;;;31.23;13.93;;;;;;;6.66;78.09;100681.25;5077603;28;20104;-76
2022/03/30 07:30:53;;;;;;;41.15;15.10;;;;;;;6.69;78.52;100672.44;5095748;28;20055;-76
2022/03/30 07:33:18;;;;;;;36.10;14.68;;;;;;;6.96;78.49;100679.75;5094106;28;20020;-75
2022/03/30 07:35:47;;;;;;;30.67;14.52;;;;;;;6.97;78.11;100676.22;5094505;28;20089;-73
2022/03/30 07:38:14;;;;;;;32.13;15.00;;;;;;;7.07;78.17;100675.22;5094034;28;20016;-75
2022/03/30 07:40:40;;;;;;;32.17;15.20;;;;;;;7.53;76.34;100675.31;5095484;28;20383;-74
2022/03/30 07:43:06;;;;;;;34.25;14.75;;;;;;;7.72;75.71;100671.53;5095507;28;20024;-75
2022/03/30 07:45:33;;;;;;;36.70;14.98;;;;;;;7.32;75.84;100673.34;5094497;28;20035;-74
2022/03/30 07:47:58;;;;;;;32.80;14.13;;;;;;;7.37;76.24;100669.31;5095242;28;20032;-75
2022/03/30 07:50:23;;;;;;;31.38;14.55;;;;;;;7.33;76.11;100667.22;5060161;28;20098;-74
2022/03/30 07:52:50;;;;;;;38.80;14.23;;;;;;;7.42;76.00;100663.63;5076067;28;20079;-75
2022/03/30 07:55:15;;;;;;;31.83;13.82;;;;;;;8.00;74.10;100658.94;5077552;28;20032;-74
2022/03/30 07:57:42;;;;;;;33.47;14.05;;;;;;;8.91;70.34;100655.34;5074149;28;20233;-74
2022/03/30 08:00:09;;;;;;;36.08;12.70;;;;;;;9.70;68.38;100663.22;5092791;28;20051;-74
2022/03/30 08:02:35;;;;;;;26.83;11.75;;;;;;;9.41;68.06;100656.38;5077080;28;20028;-74
2022/03/30 08:05:00;;;;;;;27.80;10.52;;;;;;;9.78;67.89;100662.28;5095375;28;20073;-74
2022/03/30 08:07:30;;;;;;;26.15;10.75;;;;;;;9.13;68.64;100652.88;5076968;28;20028;-75
2022/03/30 08:09:56;;;;;;;19.90;9.52;;;;;;;9.15;69.77;100661.19;5095861;28;20020;-75
2022/03/30 08:12:22;;;;;;;27.10;10.05;;;;;;;9.18;69.12;100646.19;5095016;28;20036;-76
2022/03/30 08:14:48;;;;;;;18.10;9.07;;;;;;;9.92;66.91;100655.44;5094047;28;20020;-75
2022/03/30 08:17:14;;;;;;;21.90;10.35;;;;;;;11.11;61.56;100632.19;5094070;28;20051;-74
2022/03/30 08:19:39;;;;;;;21.33;9.80;;;;;;;12.70;58.14;100649.59;5076589;28;20024;-76
2022/03/30 08:24:48;;;;;;;18.42;8.73;;;;;;;12.31;56.55;100645.28;5094820;28;20403;-75
2022/03/30 08:27:18;;;;;;;24.80;9.88;;;;;;;14.44;52.04;100650.13;5094710;28;20024;-76
2022/03/30 08:29:45;;;;;;;21.05;9.70;;;;;;;15.49;49.75;100641.28;5077744;28;20017;-76
2022/03/30 08:32:12;;;;;;;20.33;9.82;;;;;;;15.67;49.08;100656.06;5094630;28;20035;-75
2022/03/30 08:34:38;;;;;;;17.33;9.32;;;;;;;12.41;56.50;100653.44;5094456;28;20016;-76
2022/03/30 08:37:04;;;;;;;17.30;9.48;;;;;;;13.17;54.80;100644.22;5075616;28;20020;-75
2022/03/30 08:39:29;;;;;;;20.65;9.90;;;;;;;14.53;52.79;100653.25;5094637;28;20371;-74
2022/03/30 08:41:55;;;;;;;22.10;9.45;;;;;;;15.87;48.85;100651.34;5094519;28;20028;-75
2022/03/30 08:44:21;;;;;;;26.65;10.05;;;;;;;12.00;57.43;100651.88;5076178;28;20497;-73
2022/03/30 08:46:47;;;;;;;18.23;9.18;;;;;;;10.28;62.70;100650.22;5094311;28;20032;-75
2022/03/30 08:49:16;;;;;;;16.90;8.77;;;;;;;9.24;67.36;100658.34;5094209;28;20017;-75
2022/03/30 08:51:47;;;;;;;18.98;8.80;;;;;;;9.78;65.54;100653.72;5076007;28;20068;-76
2022/03/30 08:54:14;;;;;;;18.38;8.98;;;;;;;10.95;64.13;100650.59;5076121;28;20032;-74
2022/03/30 08:56:40;;;;;;;14.70;7.90;;;;;;;12.51;56.64;100635.66;5094101;28;20047;-75
2022/03/30 08:59:11;;;;;;;12.05;6.68;;;;;;;13.04;54.09;100640.69;5093919;28;20024;-77
2022/03/30 09:01:39;;;;;;;14.77;7.10;;;;;;;14.23;51.49;100640.94;5075757;28;20436;-76
2022/03/30 09:04:09;;;;;;;12.68;6.65;;;;;;;14.50;49.95;100644.09;5093997;28;20020;-74
2022/03/30 09:06:41;;;;;;;16.27;7.05;;;;;;;14.20;50.26;100639.56;5093848;28;20042;-75
2022/03/30 09:09:07;;;;;;;15.53;7.10;;;;;;;11.83;56.03;100635.91;5076265;28;20020;-75
2022/03/30 09:11:40;;;;;;;17.17;8.23;;;;;;;11.91;57.63;100640.09;5093947;28;20019;-75
2022/03/30 09:14:05;;;;;;;;;;;;;;;11.36;58.57;100647.16;5076222;28;20024;-74
2022/03/30 09:16:41;;;;;;;12.93;6.75;;;;;;;10.41;62.10;100638.38;5075428;28;20069;-75
2022/03/30 09:19:08;;;;;;;11.75;6.32;;;;;;;12.06;57.10;100627.78;5075874;28;20080;-74
2022/03/30 09:21:41;;;;;;;10.80;5.88;;;;;;;11.60;56.20;100627.72;5078453;28;20050;-76
2022/03/30 09:24:06;;;;;;;11.20;5.38;;;;;;;11.76;56.33;100627.31;5095425;28;20497;-74
2022/03/30 09:26:33;;;;;;;9.23;5.38;;;;;;;13.00;52.77;100629.13;5095376;28;20028;-77
2022/03/30 09:29:00;;;;;;;9.88;5.00;;;;;;;12.50;52.35;100613.34;5095288;28;20015;-75
2022/03/30 09:31:27;;;;;;;8.25;4.63;;;;;;;11.85;54.08;100617.56;5076505;28;20020;-74
2022/03/30 09:33:53;;;;;;;8.65;4.63;;;;;;;11.79;53.98;100626.13;5075523;28;20066;-74
2022/03/30 09:36:36;;;;;;;9.80;4.82;;;;;;;12.67;53.73;100628.47;5076055;28;20039;-73
2022/03/30 09:39:02;;;;;;;;;;;;;;;12.67;53.81;100623.28;5058778;28;20200;-72
2022/03/30 09:41:53;;;;;;;8.40;4.40;;;;;;;12.96;52.48;100612.41;5092825;28;19949;-75
2022/03/30 09:44:22;;;;;;;8.27;3.95;;;;;;;11.85;53.42;100626.16;5094470;28;20461;-73
2022/03/30 09:46:58;;;;;;;6.20;3.92;;;;;;;12.77;52.48;100608.88;5075596;28;20038;-72
2022/03/30 09:49:47;;;;;;;9.13;3.88;;;;;;;12.74;51.95;100619.66;5076274;28;20024;-73
2022/03/30 09:52:25;;;;;;;6.03;3.10;;;;;;;13.41;49.86;100619.41;5092398;28;20510;-71
2022/03/30 09:54:57;;;;;;;4.50;2.92;;;;;;;14.34;48.65;100621.25;5092771;28;20482;-72
2022/03/30 09:57:42;;;;;;;5.18;3.10;;;;;;;14.85;47.00;100618.31;5075508;28;20016;-72
2022/03/30 10:00:14;;;;;;;6.18;3.00;;;;;;;14.14;47.81;100614.41;5093034;28;20479;-72
2022/03/30 10:02:42;;;;;;;8.48;2.97;;;;;;;14.35;49.10;100612.41;5092443;28;20024;-72
2022/03/30 10:05:09;;;;;;;6.95;2.92;;;;;;;14.69;46.83;100611.09;5074770;28;20022;-72
2022/03/30 10:07:35;;;;;;;5.50;2.90;;;;;;;14.67;46.84;100605.31;5092282;28;20126;-72
2022/03/30 10:10:03;;;;;;;6.80;3.05;;;;;;;14.35;47.52;100604.63;5073994;28;20050;-72
2022/03/30 10:12:28;;;;;;;7.28;3.00;;;;;;;14.09;47.40;100601.28;5074749;28;20024;-73
2022/03/30 10:14:55;;;;;;;7.43;2.95;;;;;;;14.50;46.36;100601.66;5092947;28;20024;-72
2022/03/30 10:17:22;;;;;;;5.78;2.85;;;;;;;14.49;45.84;100611.28;5091917;28;20046;-72
2022/03/30 10:19:49;;;;;;;5.03;2.80;;;;;;;14.33;46.28;100617.06;5074733;28;20027;-72
2022/03/30 10:22:36;;;;;;;6.47;2.75;;;;;;;13.27;46.84;100622.06;5075020;28;20055;-73
2022/03/30 10:25:16;;;;;;;3.95;2.47;;;;;;;12.08;49.02;100605.03;5074696;28;20360;-72
2022/03/30 10:28:13;;;;;;;5.78;2.50;;;;;;;10.78;51.79;100619.09;5074754;28;20035;-72
2022/03/30 10:30:43;;;;;;;3.75;2.33;;;;;;;11.29;51.25;100609.13;5075156;28;20409;-71
2022/03/30 10:33:09;;;;;;;4.80;2.58;;;;;;;11.03;52.21;100599.53;5093586;28;20093;-71
2022/03/30 10:35:44;;;;;;;5.30;2.70;;;;;;;11.53;51.48;100605.19;5075376;28;20032;-72
2022/03/30 10:38:10;;;;;;;5.40;1.98;;;;;;;11.57;49.73;100591.88;5092739;28;20525;-72
2022/03/30 10:40:36;;;;;;;4.63;2.03;;;;;;;12.15;49.36;100595.47;5092782;28;20024;-72
2022/03/30 10:43:05;;;;;;;3.45;2.00;;;;;;;11.96;49.49;100584.13;5074190;28;20106;-72
2022/03/30 10:45:42;;;;;;;10.65;2.22;;;;;;;12.61;47.47;100586.81;5092769;28;20031;-72
2022/03/30 10:48:37;;;;;;;6.68;2.80;;;;;;;12.72;48.16;100580.19;5092705;28;20024;-72
2022/03/30 10:51:16;;;;;;;8.40;2.28;;;;;;;12.41;48.94;100578.28;5061782;28;20080;-72
2022/03/30 10:53:47;;;;;;;6.65;2.70;;;;;;;12.11;49.90;100577.94;5052463;28;20087;-72
2022/03/30 10:56:15;;;;;;;5.65;2.20;;;;;;;12.92;48.60;100576.69;5051857;28;20059;-72
2022/03/30 10:58:49;;;;;;;5.30;2.22;;;;;;;12.49;49.83;100570.31;5052293;28;20033;-72
2022/03/30 11:01:18;;;;;;;3.67;1.83;;;;;;;12.63;49.00;100571.84;5056720;28;20025;-70
2022/03/30 11:04:05;;;;;;;3.58;1.85;;;;;;;12.41;50.30;100573.13;5054990;28;20021;-72
2022/03/30 11:06:33;;;;;;;6.00;1.90;;;;;;;11.85;50.59;100570.97;5056357;28;20049;-72
2022/03/30 11:09:01;;;;;;;3.25;1.92;;;;;;;12.71;49.67;100563.03;5056324;28;20021;-72
2022/03/30 11:11:26;;;;;;;6.22;1.80;;;;;;;12.84;49.44;100567.38;5056103;28;20490;-73
2022/03/30 11:14:22;;;;;;;3.72;1.83;;;;;;;11.98;50.95;100558.06;5056027;28;20100;-72
2022/03/30 11:17:01;;;;;;;7.05;1.90;;;;;;;12.47;49.80;100556.75;5056463;28;20079;-72
2022/03/30 11:19:31;;;;;;;3.05;1.60;;;;;;;13.30;47.92;100566.34;5054609;28;20079;-72
2022/03/30 11:22:11;;;;;;;2.60;1.73;;;;;;;13.07;47.57;100553.88;5055647;28;20089;-73
2022/03/30 11:24:42;;;;;;;8.70;2.05;;;;;;;12.60;49.26;100553.28;5054541;28;20074;-72
2022/03/30 11:27:08;;;;;;;4.22;1.70;;;;;;;11.88;50.49;100555.06;5055856;28;20021;-73